All Spectrum Aviation - Van Nuys Airport - KVNY

HOME

Condor Squadron KVNY Webcam

Visit our Electronics Store

Condor Squadron Webcam - Van Nuys Airport - KVNY
Picture taken: Sat, 18 Jan 2020 15:40:12 -0800
YouTube Channel!    Latest Timelapse Movie    Full Size Image    Regular Size Image    

2020/01/18 22:51 KVNY 182251Z 35015G23KT 10SM CLR 19/M03 A3013 RMK AO2 SLP200 T01891033

HOME

Condor Squadron KVNY Webcam

Visit our Electronics Store